sensor_id;sensor_type;location;lat;lon;timestamp;temperature;humidity
26212;DHT22;13951;49.516;6.094;2023-12-20T00:01:44;5.50;99.90
26212;DHT22;13951;49.516;6.094;2023-12-20T00:04:20;5.50;99.90
26212;DHT22;13951;49.516;6.094;2023-12-20T00:07:07;5.50;99.90
26212;DHT22;13951;49.516;6.094;2023-12-20T00:09:54;5.50;99.90
26212;DHT22;13951;49.516;6.094;2023-12-20T00:12:31;5.50;99.90
26212;DHT22;13951;49.516;6.094;2023-12-20T00:15:18;5.50;99.90
26212;DHT22;13951;49.516;6.094;2023-12-20T00:17:52;5.60;99.90
26212;DHT22;13951;49.516;6.094;2023-12-20T00:20:39;5.50;99.90
26212;DHT22;13951;49.516;6.094;2023-12-20T00:23:26;5.60;99.90
26212;DHT22;13951;49.516;6.094;2023-12-20T00:26:01;5.60;99.90
26212;DHT22;13951;49.516;6.094;2023-12-20T00:28:36;5.60;99.90
26212;DHT22;13951;49.516;6.094;2023-12-20T00:31:23;5.50;99.90
26212;DHT22;13951;49.516;6.094;2023-12-20T00:34:03;5.50;99.90
26212;DHT22;13951;49.516;6.094;2023-12-20T00:36:50;5.50;99.90
26212;DHT22;13951;49.516;6.094;2023-12-20T00:39:37;5.50;99.90
26212;DHT22;13951;49.516;6.094;2023-12-20T00:42:19;5.50;99.90
26212;DHT22;13951;49.516;6.094;2023-12-20T00:44:56;5.50;99.90
26212;DHT22;13951;49.516;6.094;2023-12-20T00:47:43;5.50;99.90
26212;DHT22;13951;49.516;6.094;2023-12-20T00:50:30;5.50;99.90
26212;DHT22;13951;49.516;6.094;2023-12-20T00:53:17;5.50;99.90
26212;DHT22;13951;49.516;6.094;2023-12-20T00:56:04;5.50;99.90
26212;DHT22;13951;49.516;6.094;2023-12-20T00:58:39;5.50;99.90
26212;DHT22;13951;49.516;6.094;2023-12-20T01:01:26;5.50;99.90
26212;DHT22;13951;49.516;6.094;2023-12-20T01:04:13;5.50;99.90
26212;DHT22;13951;49.516;6.094;2023-12-20T01:07:00;5.50;99.90
26212;DHT22;13951;49.516;6.094;2023-12-20T01:09:48;5.50;99.90
26212;DHT22;13951;49.516;6.094;2023-12-20T01:12:36;5.50;99.90
26212;DHT22;13951;49.516;6.094;2023-12-20T01:15:24;5.50;99.90
26212;DHT22;13951;49.516;6.094;2023-12-20T01:18:11;5.50;99.90
26212;DHT22;13951;49.516;6.094;2023-12-20T01:21:04;5.50;99.90
26212;DHT22;13951;49.516;6.094;2023-12-20T01:23:53;5.50;99.90
26212;DHT22;13951;49.516;6.094;2023-12-20T01:26:31;5.50;99.90
26212;DHT22;13951;49.516;6.094;2023-12-20T01:29:19;5.50;99.90
26212;DHT22;13951;49.516;6.094;2023-12-20T01:32:06;5.50;99.90
26212;DHT22;13951;49.516;6.094;2023-12-20T01:34:53;5.50;99.90
26212;DHT22;13951;49.516;6.094;2023-12-20T01:37:40;5.50;99.90
26212;DHT22;13951;49.516;6.094;2023-12-20T01:40:19;5.40;99.90
26212;DHT22;13951;49.516;6.094;2023-12-20T01:43:09;5.50;99.90
26212;DHT22;13951;49.516;6.094;2023-12-20T01:45:58;5.50;99.90
26212;DHT22;13951;49.516;6.094;2023-12-20T01:48:46;5.40;99.90
26212;DHT22;13951;49.516;6.094;2023-12-20T01:51:36;5.50;99.90
26212;DHT22;13951;49.516;6.094;2023-12-20T01:54:23;5.50;99.90
26212;DHT22;13951;49.516;6.094;2023-12-20T01:57:01;5.50;99.90
26212;DHT22;13951;49.516;6.094;2023-12-20T01:59:48;5.50;99.90
26212;DHT22;13951;49.516;6.094;2023-12-20T02:02:39;5.50;99.90
26212;DHT22;13951;49.516;6.094;2023-12-20T02:05:26;5.60;99.90
26212;DHT22;13951;49.516;6.094;2023-12-20T02:08:14;5.50;99.90
26212;DHT22;13951;49.516;6.094;2023-12-20T02:11:02;5.50;99.90
26212;DHT22;13951;49.516;6.094;2023-12-20T02:13:49;5.50;99.90
26212;DHT22;13951;49.516;6.094;2023-12-20T02:16:36;5.50;99.90
26212;DHT22;13951;49.516;6.094;2023-12-20T02:19:23;5.60;99.90
26212;DHT22;13951;49.516;6.094;2023-12-20T02:22:11;5.50;99.90
26212;DHT22;13951;49.516;6.094;2023-12-20T02:24:58;5.60;99.90
26212;DHT22;13951;49.516;6.094;2023-12-20T02:27:45;5.60;99.90
26212;DHT22;13951;49.516;6.094;2023-12-20T02:30:32;5.60;99.90
26212;DHT22;13951;49.516;6.094;2023-12-20T02:33:20;5.50;99.90
26212;DHT22;13951;49.516;6.094;2023-12-20T02:36:07;5.60;99.90
26212;DHT22;13951;49.516;6.094;2023-12-20T02:38:54;5.50;99.90
26212;DHT22;13951;49.516;6.094;2023-12-20T02:41:41;5.60;99.90
26212;DHT22;13951;49.516;6.094;2023-12-20T02:44:29;5.50;99.90
26212;DHT22;13951;49.516;6.094;2023-12-20T02:47:16;5.60;99.90
26212;DHT22;13951;49.516;6.094;2023-12-20T02:50:03;5.50;99.90
26212;DHT22;13951;49.516;6.094;2023-12-20T02:52:51;5.60;99.90
26212;DHT22;13951;49.516;6.094;2023-12-20T02:55:39;5.50;99.90
26212;DHT22;13951;49.516;6.094;2023-12-20T02:58:26;5.50;99.90
26212;DHT22;13951;49.516;6.094;2023-12-20T03:01:13;5.50;99.90
26212;DHT22;13951;49.516;6.094;2023-12-20T03:04:01;5.50;99.90
26212;DHT22;13951;49.516;6.094;2023-12-20T03:06:48;5.50;99.90
26212;DHT22;13951;49.516;6.094;2023-12-20T03:09:35;5.50;99.90
26212;DHT22;13951;49.516;6.094;2023-12-20T03:12:22;5.50;99.90
26212;DHT22;13951;49.516;6.094;2023-12-20T03:14:55;5.50;99.90
26212;DHT22;13951;49.516;6.094;2023-12-20T03:17:43;5.50;99.90
26212;DHT22;13951;49.516;6.094;2023-12-20T03:20:30;5.40;99.90
26212;DHT22;13951;49.516;6.094;2023-12-20T03:23:07;5.40;99.90
26212;DHT22;13951;49.516;6.094;2023-12-20T03:25:55;5.30;99.90
26212;DHT22;13951;49.516;6.094;2023-12-20T03:28:42;5.40;99.90
26212;DHT22;13951;49.516;6.094;2023-12-20T03:31:29;5.40;99.90
26212;DHT22;13951;49.516;6.094;2023-12-20T03:34:17;5.40;99.90
26212;DHT22;13951;49.516;6.094;2023-12-20T03:37:05;5.40;99.90
26212;DHT22;13951;49.516;6.094;2023-12-20T03:39:52;5.30;99.90
26212;DHT22;13951;49.516;6.094;2023-12-20T03:42:39;5.20;99.90
26212;DHT22;13951;49.516;6.094;2023-12-20T03:45:14;5.10;99.90
26212;DHT22;13951;49.516;6.094;2023-12-20T03:48:02;5.00;99.90
26212;DHT22;13951;49.516;6.094;2023-12-20T03:50:49;4.90;99.90
26212;DHT22;13951;49.516;6.094;2023-12-20T03:53:37;4.80;99.90
26212;DHT22;13951;49.516;6.094;2023-12-20T03:56:25;4.70;99.90
26212;DHT22;13951;49.516;6.094;2023-12-20T03:59:13;4.70;99.90
26212;DHT22;13951;49.516;6.094;2023-12-20T04:02:00;4.60;99.90
26212;DHT22;13951;49.516;6.094;2023-12-20T04:04:48;4.60;99.90
26212;DHT22;13951;49.516;6.094;2023-12-20T04:07:36;4.50;99.90
26212;DHT22;13951;49.516;6.094;2023-12-20T04:10:23;4.50;99.90
26212;DHT22;13951;49.516;6.094;2023-12-20T04:13:10;4.50;99.90
26212;DHT22;13951;49.516;6.094;2023-12-20T04:15:47;4.50;99.90
26212;DHT22;13951;49.516;6.094;2023-12-20T04:18:38;4.50;99.90
26212;DHT22;13951;49.516;6.094;2023-12-20T04:21:26;4.40;99.90
26212;DHT22;13951;49.516;6.094;2023-12-20T04:24:00;4.30;99.90
26212;DHT22;13951;49.516;6.094;2023-12-20T04:26:47;4.30;99.90
26212;DHT22;13951;49.516;6.094;2023-12-20T04:29:34;4.30;99.90
26212;DHT22;13951;49.516;6.094;2023-12-20T04:32:26;4.20;99.90
26212;DHT22;13951;49.516;6.094;2023-12-20T04:35:15;4.20;99.90
26212;DHT22;13951;49.516;6.094;2023-12-20T04:38:13;4.10;99.90
26212;DHT22;13951;49.516;6.094;2023-12-20T04:41:07;4.10;99.90
26212;DHT22;13951;49.516;6.094;2023-12-20T04:43:40;4.00;99.90
26212;DHT22;13951;49.516;6.094;2023-12-20T04:46:27;4.00;99.90
26212;DHT22;13951;49.516;6.094;2023-12-20T04:49:14;3.90;99.90
26212;DHT22;13951;49.516;6.094;2023-12-20T04:52:02;3.90;99.90
26212;DHT22;13951;49.516;6.094;2023-12-20T04:54:49;3.90;99.90
26212;DHT22;13951;49.516;6.094;2023-12-20T04:57:25;4.00;99.90
26212;DHT22;13951;49.516;6.094;2023-12-20T05:00:13;4.00;99.90
26212;DHT22;13951;49.516;6.094;2023-12-20T05:03:04;4.00;99.90
26212;DHT22;13951;49.516;6.094;2023-12-20T05:05:37;4.00;99.90
26212;DHT22;13951;49.516;6.094;2023-12-20T05:08:25;4.00;99.90
26212;DHT22;13951;49.516;6.094;2023-12-20T05:11:12;4.10;99.90
26212;DHT22;13951;49.516;6.094;2023-12-20T05:14:17;4.10;99.90
26212;DHT22;13951;49.516;6.094;2023-12-20T05:18:21;4.10;99.90
26212;DHT22;13951;49.516;6.094;2023-12-20T05:28:31;4.20;99.90
26212;DHT22;13951;49.516;6.094;2023-12-20T05:31:20;4.20;99.90
26212;DHT22;13951;49.516;6.094;2023-12-20T05:34:08;4.20;99.90
26212;DHT22;13951;49.516;6.094;2023-12-20T05:36:57;4.20;99.90
26212;DHT22;13951;49.516;6.094;2023-12-20T05:39:45;4.30;99.90
26212;DHT22;13951;49.516;6.094;2023-12-20T05:42:32;4.30;99.90
26212;DHT22;13951;49.516;6.094;2023-12-20T05:45:21;4.30;99.90
26212;DHT22;13951;49.516;6.094;2023-12-20T05:48:08;4.30;99.90
26212;DHT22;13951;49.516;6.094;2023-12-20T12:41:09;6.10;99.90
26212;DHT22;13951;49.516;6.094;2023-12-20T12:44:32;6.10;99.90
26212;DHT22;13951;49.516;6.094;2023-12-20T12:48:24;6.10;99.90
26212;DHT22;13951;49.516;6.094;2023-12-20T13:07:56;6.10;99.90
26212;DHT22;13951;49.516;6.094;2023-12-20T13:11:22;6.10;99.90
26212;DHT22;13951;49.516;6.094;2023-12-20T13:21:35;6.20;99.90
26212;DHT22;13951;49.516;6.094;2023-12-20T13:24:12;6.20;99.90
26212;DHT22;13951;49.516;6.094;2023-12-20T13:26:47;6.20;99.90
26212;DHT22;13951;49.516;6.094;2023-12-20T13:29:23;6.20;99.90
26212;DHT22;13951;49.516;6.094;2023-12-20T13:31:58;6.20;99.90
26212;DHT22;13951;49.516;6.094;2023-12-20T13:34:44;6.20;99.90
26212;DHT22;13951;49.516;6.094;2023-12-20T13:37:26;6.20;99.90
26212;DHT22;13951;49.516;6.094;2023-12-20T13:40:00;6.20;99.90
26212;DHT22;13951;49.516;6.094;2023-12-20T13:42:41;6.20;99.90
26212;DHT22;13951;49.516;6.094;2023-12-20T13:45:21;6.30;99.90
26212;DHT22;13951;49.516;6.094;2023-12-20T13:47:57;6.30;99.90
26212;DHT22;13951;49.516;6.094;2023-12-20T13:50:33;6.20;99.90
26212;DHT22;13951;49.516;6.094;2023-12-20T13:53:10;6.30;99.90
26212;DHT22;13951;49.516;6.094;2023-12-20T13:55:50;6.20;99.90
26212;DHT22;13951;49.516;6.094;2023-12-20T13:58:30;6.20;99.90
26212;DHT22;13951;49.516;6.094;2023-12-20T14:01:10;6.30;99.90
26212;DHT22;13951;49.516;6.094;2023-12-20T14:03:45;6.20;99.90
26212;DHT22;13951;49.516;6.094;2023-12-20T14:06:22;6.20;99.90
26212;DHT22;13951;49.516;6.094;2023-12-20T14:08:58;6.20;99.90
26212;DHT22;13951;49.516;6.094;2023-12-20T14:12:08;6.10;99.90
26212;DHT22;13951;49.516;6.094;2023-12-20T14:14:50;6.20;99.90
26212;DHT22;13951;49.516;6.094;2023-12-20T14:17:28;6.20;99.90
26212;DHT22;13951;49.516;6.094;2023-12-20T14:20:08;6.10;99.90
26212;DHT22;13951;49.516;6.094;2023-12-20T14:22:46;6.20;99.90
26212;DHT22;13951;49.516;6.094;2023-12-20T14:25:26;6.30;99.90
26212;DHT22;13951;49.516;6.094;2023-12-20T14:28:04;6.10;99.90
26212;DHT22;13951;49.516;6.094;2023-12-20T14:30:46;6.20;99.90
26212;DHT22;13951;49.516;6.094;2023-12-20T14:34:28;6.20;99.90
26212;DHT22;13951;49.516;6.094;2023-12-20T14:37:10;6.20;99.90
26212;DHT22;13951;49.516;6.094;2023-12-20T14:40:03;6.20;99.90
26212;DHT22;13951;49.516;6.094;2023-12-20T14:42:37;6.20;99.90
26212;DHT22;13951;49.516;6.094;2023-12-20T14:45:12;6.20;99.90
26212;DHT22;13951;49.516;6.094;2023-12-20T14:47:49;6.20;99.90
26212;DHT22;13951;49.516;6.094;2023-12-20T14:50:28;6.10;99.90
26212;DHT22;13951;49.516;6.094;2023-12-20T14:53:30;6.10;99.90
26212;DHT22;13951;49.516;6.094;2023-12-20T14:56:05;6.10;99.90
26212;DHT22;13951;49.516;6.094;2023-12-20T14:58:40;6.20;99.90
26212;DHT22;13951;49.516;6.094;2023-12-20T15:01:14;6.20;99.90
26212;DHT22;13951;49.516;6.094;2023-12-20T15:03:49;6.10;99.90
26212;DHT22;13951;49.516;6.094;2023-12-20T15:06:31;6.10;99.90
26212;DHT22;13951;49.516;6.094;2023-12-20T15:09:09;6.10;99.90
26212;DHT22;13951;49.516;6.094;2023-12-20T15:11:47;6.10;99.90
26212;DHT22;13951;49.516;6.094;2023-12-20T15:14:21;6.10;99.90
26212;DHT22;13951;49.516;6.094;2023-12-20T15:16:57;6.10;99.90
26212;DHT22;13951;49.516;6.094;2023-12-20T15:19:31;6.10;99.90
26212;DHT22;13951;49.516;6.094;2023-12-20T15:22:06;6.10;99.90
26212;DHT22;13951;49.516;6.094;2023-12-20T15:24:43;6.10;99.90
26212;DHT22;13951;49.516;6.094;2023-12-20T15:27:21;6.10;99.90
26212;DHT22;13951;49.516;6.094;2023-12-20T15:30:02;6.20;99.90
26212;DHT22;13951;49.516;6.094;2023-12-20T15:32:36;6.20;99.90
26212;DHT22;13951;49.516;6.094;2023-12-20T15:35:11;6.20;99.90
26212;DHT22;13951;49.516;6.094;2023-12-20T15:37:45;6.20;99.90
26212;DHT22;13951;49.516;6.094;2023-12-20T15:40:19;6.20;99.90
26212;DHT22;13951;49.516;6.094;2023-12-20T15:42:53;6.20;99.90
26212;DHT22;13951;49.516;6.094;2023-12-20T15:45:27;6.20;99.90
26212;DHT22;13951;49.516;6.094;2023-12-20T15:48:01;6.20;99.90
26212;DHT22;13951;49.516;6.094;2023-12-20T15:50:35;6.20;99.90
26212;DHT22;13951;49.516;6.094;2023-12-20T15:53:09;6.20;99.90
26212;DHT22;13951;49.516;6.094;2023-12-20T15:55:42;6.20;99.90
26212;DHT22;13951;49.516;6.094;2023-12-20T15:58:16;6.20;99.90
26212;DHT22;13951;49.516;6.094;2023-12-20T16:00:51;6.20;99.90
26212;DHT22;13951;49.516;6.094;2023-12-20T16:03:25;6.20;99.90
26212;DHT22;13951;49.516;6.094;2023-12-20T16:06:03;6.20;99.90
26212;DHT22;13951;49.516;6.094;2023-12-20T16:08:38;6.20;99.90
26212;DHT22;13951;49.516;6.094;2023-12-20T16:11:11;6.20;99.90
26212;DHT22;13951;49.516;6.094;2023-12-20T16:13:45;6.20;99.90
26212;DHT22;13951;49.516;6.094;2023-12-20T16:16:18;6.20;99.90
26212;DHT22;13951;49.516;6.094;2023-12-20T16:18:52;6.20;99.90
26212;DHT22;13951;49.516;6.094;2023-12-20T16:21:25;6.20;99.90
26212;DHT22;13951;49.516;6.094;2023-12-20T16:23:58;6.20;99.90
26212;DHT22;13951;49.516;6.094;2023-12-20T16:26:32;6.20;99.90
26212;DHT22;13951;49.516;6.094;2023-12-20T16:29:05;6.20;99.90
26212;DHT22;13951;49.516;6.094;2023-12-20T16:31:38;6.20;99.90
26212;DHT22;13951;49.516;6.094;2023-12-20T16:34:12;6.30;99.90
26212;DHT22;13951;49.516;6.094;2023-12-20T16:36:53;6.30;99.90
26212;DHT22;13951;49.516;6.094;2023-12-20T16:39:28;6.30;99.90
26212;DHT22;13951;49.516;6.094;2023-12-20T16:42:02;6.30;99.90
26212;DHT22;13951;49.516;6.094;2023-12-20T16:44:36;6.30;99.90
26212;DHT22;13951;49.516;6.094;2023-12-20T16:47:11;6.30;99.90
26212;DHT22;13951;49.516;6.094;2023-12-20T16:49:45;6.30;99.90
26212;DHT22;13951;49.516;6.094;2023-12-20T16:52:18;6.30;99.90
26212;DHT22;13951;49.516;6.094;2023-12-20T16:54:56;6.30;99.90
26212;DHT22;13951;49.516;6.094;2023-12-20T16:57:30;6.30;99.90
26212;DHT22;13951;49.516;6.094;2023-12-20T17:00:04;6.30;99.90
26212;DHT22;13951;49.516;6.094;2023-12-20T17:02:38;6.30;99.90
26212;DHT22;13951;49.516;6.094;2023-12-20T17:05:13;6.30;99.90
26212;DHT22;13951;49.516;6.094;2023-12-20T17:07:46;6.30;99.90
26212;DHT22;13951;49.516;6.094;2023-12-20T17:10:21;6.40;99.90
26212;DHT22;13951;49.516;6.094;2023-12-20T17:12:54;6.40;99.90
26212;DHT22;13951;49.516;6.094;2023-12-20T17:15:28;6.40;99.90
26212;DHT22;13951;49.516;6.094;2023-12-20T17:18:02;6.40;99.90
26212;DHT22;13951;49.516;6.094;2023-12-20T17:20:39;6.40;99.90
26212;DHT22;13951;49.516;6.094;2023-12-20T17:23:12;6.40;99.90
26212;DHT22;13951;49.516;6.094;2023-12-20T17:25:45;6.40;99.90
26212;DHT22;13951;49.516;6.094;2023-12-20T17:28:19;6.40;99.90
26212;DHT22;13951;49.516;6.094;2023-12-20T17:30:52;6.40;99.90
26212;DHT22;13951;49.516;6.094;2023-12-20T17:33:26;6.50;99.90
26212;DHT22;13951;49.516;6.094;2023-12-20T17:35:59;6.40;99.90
26212;DHT22;13951;49.516;6.094;2023-12-20T17:38:32;6.50;99.90
26212;DHT22;13951;49.516;6.094;2023-12-20T17:41:09;6.40;99.90
26212;DHT22;13951;49.516;6.094;2023-12-20T17:43:43;6.50;99.90
26212;DHT22;13951;49.516;6.094;2023-12-20T17:46:16;6.50;99.90
26212;DHT22;13951;49.516;6.094;2023-12-20T17:48:49;6.50;99.90
26212;DHT22;13951;49.516;6.094;2023-12-20T17:51:23;6.50;99.90
26212;DHT22;13951;49.516;6.094;2023-12-20T17:54:11;6.50;99.90
26212;DHT22;13951;49.516;6.094;2023-12-20T17:56:59;6.50;99.90
26212;DHT22;13951;49.516;6.094;2023-12-20T17:59:50;6.50;99.90
26212;DHT22;13951;49.516;6.094;2023-12-20T18:02:40;6.60;99.90
26212;DHT22;13951;49.516;6.094;2023-12-20T18:05:27;6.50;99.90
26212;DHT22;13951;49.516;6.094;2023-12-20T18:08:18;6.50;99.90
26212;DHT22;13951;49.516;6.094;2023-12-20T18:10:54;6.50;99.90
26212;DHT22;13951;49.516;6.094;2023-12-20T18:13:42;6.50;99.90
26212;DHT22;13951;49.516;6.094;2023-12-20T18:16:29;6.50;99.90
26212;DHT22;13951;49.516;6.094;2023-12-20T18:19:17;6.50;99.90
26212;DHT22;13951;49.516;6.094;2023-12-20T18:22:05;6.50;99.90
26212;DHT22;13951;49.516;6.094;2023-12-20T18:24:54;6.50;99.90
26212;DHT22;13951;49.516;6.094;2023-12-20T18:27:42;6.50;99.90
26212;DHT22;13951;49.516;6.094;2023-12-20T18:30:29;6.60;99.90
26212;DHT22;13951;49.516;6.094;2023-12-20T18:33:16;6.50;99.90
26212;DHT22;13951;49.516;6.094;2023-12-20T18:36:04;6.50;99.90
26212;DHT22;13951;49.516;6.094;2023-12-20T18:38:38;6.60;99.90
26212;DHT22;13951;49.516;6.094;2023-12-20T18:41:26;6.60;99.90
26212;DHT22;13951;49.516;6.094;2023-12-20T18:44:14;6.60;99.90
26212;DHT22;13951;49.516;6.094;2023-12-20T18:47:02;6.60;99.90
26212;DHT22;13951;49.516;6.094;2023-12-20T18:49:50;6.60;99.90
26212;DHT22;13951;49.516;6.094;2023-12-20T18:52:38;6.60;99.90
26212;DHT22;13951;49.516;6.094;2023-12-20T18:55:25;6.60;99.90
26212;DHT22;13951;49.516;6.094;2023-12-20T18:58:12;6.60;99.90
26212;DHT22;13951;49.516;6.094;2023-12-20T19:01:01;6.60;99.90
26212;DHT22;13951;49.516;6.094;2023-12-20T19:03:48;6.60;99.90
26212;DHT22;13951;49.516;6.094;2023-12-20T19:06:35;6.60;99.90
26212;DHT22;13951;49.516;6.094;2023-12-20T19:09:23;6.60;99.90
26212;DHT22;13951;49.516;6.094;2023-12-20T19:12:05;6.60;99.90
26212;DHT22;13951;49.516;6.094;2023-12-20T19:14:53;6.60;99.90
26212;DHT22;13951;49.516;6.094;2023-12-20T19:17:30;6.60;99.90
26212;DHT22;13951;49.516;6.094;2023-12-20T19:20:05;6.60;99.90
26212;DHT22;13951;49.516;6.094;2023-12-20T19:22:42;6.60;99.90
26212;DHT22;13951;49.516;6.094;2023-12-20T19:25:15;6.60;99.90
26212;DHT22;13951;49.516;6.094;2023-12-20T19:28:02;6.60;99.90
26212;DHT22;13951;49.516;6.094;2023-12-20T19:30:36;6.60;99.90
26212;DHT22;13951;49.516;6.094;2023-12-20T19:33:24;6.60;99.90
26212;DHT22;13951;49.516;6.094;2023-12-20T19:36:11;6.60;99.90
26212;DHT22;13951;49.516;6.094;2023-12-20T19:38:58;6.60;99.90
26212;DHT22;13951;49.516;6.094;2023-12-20T19:41:45;6.60;99.90
26212;DHT22;13951;49.516;6.094;2023-12-20T19:44:32;6.60;99.90
26212;DHT22;13951;49.516;6.094;2023-12-20T19:47:19;6.60;99.90
26212;DHT22;13951;49.516;6.094;2023-12-20T19:50:06;6.60;99.90
26212;DHT22;13951;49.516;6.094;2023-12-20T19:52:40;6.60;99.90
26212;DHT22;13951;49.516;6.094;2023-12-20T19:55:20;6.60;99.90
26212;DHT22;13951;49.516;6.094;2023-12-20T19:57:57;6.60;99.90
26212;DHT22;13951;49.516;6.094;2023-12-20T20:00:45;6.60;99.90
26212;DHT22;13951;49.516;6.094;2023-12-20T20:03:32;6.50;99.90
26212;DHT22;13951;49.516;6.094;2023-12-20T20:06:06;6.60;99.90
26212;DHT22;13951;49.516;6.094;2023-12-20T20:08:53;6.70;99.90
26212;DHT22;13951;49.516;6.094;2023-12-20T20:11:30;6.60;99.90
26212;DHT22;13951;49.516;6.094;2023-12-20T20:14:16;6.60;99.90
26212;DHT22;13951;49.516;6.094;2023-12-20T20:17:03;6.60;99.90
26212;DHT22;13951;49.516;6.094;2023-12-20T20:19:50;6.50;99.90
26212;DHT22;13951;49.516;6.094;2023-12-20T20:22:37;6.60;99.90
26212;DHT22;13951;49.516;6.094;2023-12-20T20:25:25;6.60;99.90
26212;DHT22;13951;49.516;6.094;2023-12-20T20:28:12;6.60;99.90
26212;DHT22;13951;49.516;6.094;2023-12-20T20:30:59;6.60;99.90
26212;DHT22;13951;49.516;6.094;2023-12-20T20:33:45;6.60;99.90
26212;DHT22;13951;49.516;6.094;2023-12-20T20:36:20;6.60;99.90
26212;DHT22;13951;49.516;6.094;2023-12-20T20:39:07;6.60;99.90
26212;DHT22;13951;49.516;6.094;2023-12-20T20:42:01;6.60;99.90
26212;DHT22;13951;49.516;6.094;2023-12-20T20:46:00;6.70;99.90
26212;DHT22;13951;49.516;6.094;2023-12-20T20:49:18;6.70;99.90
26212;DHT22;13951;49.516;6.094;2023-12-20T20:52:47;6.70;99.90
26212;DHT22;13951;49.516;6.094;2023-12-20T21:13:39;6.80;99.90
26212;DHT22;13951;49.516;6.094;2023-12-20T21:17:13;6.80;99.90
26212;DHT22;13951;49.516;6.094;2023-12-20T21:20:42;6.80;99.90
26212;DHT22;13951;49.516;6.094;2023-12-20T21:24:04;6.80;99.90
26212;DHT22;13951;49.516;6.094;2023-12-20T21:26:53;6.80;99.90
26212;DHT22;13951;49.516;6.094;2023-12-20T21:30:12;6.80;99.90
26212;DHT22;13951;49.516;6.094;2023-12-20T21:34:06;6.80;99.90
26212;DHT22;13951;49.516;6.094;2023-12-20T21:37:13;6.80;99.90
26212;DHT22;13951;49.516;6.094;2023-12-20T21:40:52;6.80;99.90
26212;DHT22;13951;49.516;6.094;2023-12-20T21:44:19;6.80;99.90
26212;DHT22;13951;49.516;6.094;2023-12-20T21:47:51;6.80;99.90
26212;DHT22;13951;49.516;6.094;2023-12-20T21:51:50;6.80;99.90
26212;DHT22;13951;49.516;6.094;2023-12-20T21:55:01;6.80;99.90
26212;DHT22;13951;49.516;6.094;2023-12-20T21:58:19;6.90;99.90
26212;DHT22;13951;49.516;6.094;2023-12-20T22:01:41;6.90;99.90
26212;DHT22;13951;49.516;6.094;2023-12-20T22:04:31;6.90;99.90
26212;DHT22;13951;49.516;6.094;2023-12-20T22:08:02;6.90;99.90
26212;DHT22;13951;49.516;6.094;2023-12-20T22:11:19;6.90;99.90
26212;DHT22;13951;49.516;6.094;2023-12-20T22:14:40;6.90;99.90
26212;DHT22;13951;49.516;6.094;2023-12-20T22:20:53;6.90;99.90
26212;DHT22;13951;49.516;6.094;2023-12-20T22:24:28;6.90;99.90
26212;DHT22;13951;49.516;6.094;2023-12-20T22:31:29;7.00;99.90
26212;DHT22;13951;49.516;6.094;2023-12-20T22:34:26;7.00;99.90
26212;DHT22;13951;49.516;6.094;2023-12-20T22:38:03;6.90;99.90
26212;DHT22;13951;49.516;6.094;2023-12-20T22:41:16;6.90;99.90
26212;DHT22;13951;49.516;6.094;2023-12-20T22:44:15;6.90;99.90
26212;DHT22;13951;49.516;6.094;2023-12-20T22:47:14;7.00;99.90
26212;DHT22;13951;49.516;6.094;2023-12-20T22:50:08;6.90;99.90
26212;DHT22;13951;49.516;6.094;2023-12-20T22:53:19;7.00;99.90
26212;DHT22;13951;49.516;6.094;2023-12-20T22:56:51;7.00;99.90
26212;DHT22;13951;49.516;6.094;2023-12-20T23:00:01;7.00;99.90
26212;DHT22;13951;49.516;6.094;2023-12-20T23:03:09;7.00;99.90
26212;DHT22;13951;49.516;6.094;2023-12-20T23:06:11;7.00;99.90
26212;DHT22;13951;49.516;6.094;2023-12-20T23:09:02;7.00;99.90
26212;DHT22;13951;49.516;6.094;2023-12-20T23:12:18;7.10;99.90
26212;DHT22;13951;49.516;6.094;2023-12-20T23:22:20;7.10;99.90
26212;DHT22;13951;49.516;6.094;2023-12-20T23:25:36;7.10;99.90
26212;DHT22;13951;49.516;6.094;2023-12-20T23:28:48;7.10;99.90
26212;DHT22;13951;49.516;6.094;2023-12-20T23:31:36;7.10;99.90
26212;DHT22;13951;49.516;6.094;2023-12-20T23:34:36;7.00;99.90
26212;DHT22;13951;49.516;6.094;2023-12-20T23:37:44;7.10;99.90
26212;DHT22;13951;49.516;6.094;2023-12-20T23:50:41;7.10;99.90
